MMMLKSAN

Guest
Details From MMML - GENERAL RODOLFO SANCHEZ TABOADA INTL
To KSAN - San Diego Intl
Flight Number -
Tags generated
Created
Modified
Stats Distance 99 nm / 183 km
Max Altitude 7,400 ft / 2,256 m
Waypoints 3
Social Downloads 0
Likes 0
Share VATSIM

Download

Looking for another format? Having issues loading an existing format? Contact us
Advertisement - Login to hide

Notes

Basic altitude profile: - Ascent Rate: 2500ft/min - Ascent Speed: 250kts - Cruise Altitude: 35000ft - Cruise Speed: 420kts - Descent Rate: 1500ft/min - Descent Speed: 250kts Options: - Use NATs: yes - Use PACOTS: yes - Use low airways: yes - Use high airways: yes

Route

MMML ASUTA KSAN

ID Type Via Altitude Latitude Longitude Leg Dist Tot Dist Heading (true) Name
O MMML APT - 0 ft / 0 m 32.63067˚ -115.24244˚ - 0 nm - GENERAL RODOLFO SANCHEZ TABOADA INTL
ASUTA FIX - 7,400 ft / 2,256 m 32.65258˚ -115.65292˚ 20 nm 20 nm 274° / 274° -
O KSAN APT - 0 ft / 0 m 32.73356˚ -117.18966˚ 77 nm 98 nm 274° / 273° San Diego Intl

Altitude Profile

Advertisement - Login to hide

MMML

Details ICAO MMML (MXL)
Name GENERAL RODOLFO SANCHEZ TABOADA INTL
Region Mexico
Timezone America/Tijuana (UTC-8.0)
Stats Elevation 74 ft / 23 m (AMSL)
Location 32.630667° -115.242439°
Runways 1
Magnetic Variation 11.066° E

METAR

MMML 180345Z 29005KT 10SM SKC 13/M02 A3002

Decode

TAF

Not found

Departure Runways

ID Width Length Bearing (true) Bearing (mag) Surface Threshold Offset Overrun Length
10 148 ft / 45 m 8,536 ft / 2,602 m 118.32° 107.25° Concrete 0 ft / 0 m 200 ft / 61 m
28 148 ft / 45 m 8,536 ft / 2,602 m 298.34° 287.27° Concrete 0 ft / 0 m 200 ft / 61 m

KSAN

Details ICAO KSAN (SAN)
Name San Diego Intl
Region United States
Timezone America/Los_Angeles (UTC-8.0)
Stats Elevation 17 ft / 5 m (AMSL)
Location 32.733556° -117.189658°
Runways 1
Magnetic Variation 11.524° E

METAR

KSAN 180451Z 11004KT 10SM CLR 16/01 A3003 RMK AO2 SLP167 T01560011

Decode

TAF

TAF AMD KSAN 180303Z 1803/1906 VRB06KT P6SM SKC FM182000 28009KT P6SM SKC FM190100 VRB05KT P6SM SKC

Decode

Destination Runways

ID Width Length Bearing (true) Bearing (mag) Surface Threshold Offset Overrun Length
09 200 ft / 61 m 9,387 ft / 2,861 m 106.07° 94.55° Asphalt 699 ft / 213 m 269 ft / 82 m
27 200 ft / 61 m 9,387 ft / 2,861 m 286.08° 274.56° Asphalt 1,811 ft / 552 m 0 ft / 0 m

Approach Navaids

Runway Type Ident Frequency Range Bearing (true) Bearing (mag) Slope Elevation
09 Localiser ISAN 111.55 MHz 18 nm / 33 km 106.08° 94.55° - 17 ft / 5 m (AMSL)
09 Glidescope ISAN 111.55 MHz 10 nm / 19 km 106.08° 94.55° 3.22° 13 ft / 4 m (AMSL)
09 DME ISAN 111.55 MHz 18 nm / 33 km - - - 29 ft / 9 m (AMSL)
27 Localiser IUBR 110.90 MHz 18 nm / 33 km 286.07° 274.54° - 13 ft / 4 m (AMSL)
27 DME IUBR 110.90 MHz 18 nm / 33 km - - - 26 ft / 8 m (AMSL)